createdAt,value
2018-03-06T00:00:19.718Z,14.87
2018-03-06T00:02:48.498Z,14.30
2018-03-06T00:05:17.518Z,14.97
2018-03-06T00:07:46.634Z,15.30
2018-03-06T00:10:14.954Z,14.60
2018-03-06T00:12:43.247Z,14.60
2018-03-06T00:15:11.971Z,15.17
2018-03-06T00:17:40.614Z,14.73
2018-03-06T00:20:09.298Z,13.87
2018-03-06T00:22:37.622Z,14.30
2018-03-06T00:25:06.162Z,14.63
2018-03-06T00:27:34.865Z,15.00
2018-03-06T00:30:03.221Z,14.43
2018-03-06T00:32:31.523Z,13.87
2018-03-06T00:34:59.818Z,14.27
2018-03-06T00:37:28.463Z,13.67
2018-03-06T00:39:57.250Z,14.10
2018-03-06T00:42:26.038Z,14.90
2018-03-06T00:44:54.809Z,14.63
2018-03-06T00:47:23.107Z,13.60
2018-03-06T00:49:51.803Z,13.90
2018-03-06T00:52:20.152Z,14.40
2018-03-06T00:54:48.453Z,14.10
2018-03-06T00:57:17.172Z,14.73
2018-03-06T00:59:45.493Z,13.90
2018-03-06T01:02:14.195Z,14.53
2018-03-06T01:04:43.193Z,14.50
2018-03-06T01:07:11.903Z,14.10
2018-03-06T01:09:40.250Z,14.00
2018-03-06T01:12:08.939Z,14.00
2018-03-06T01:14:37.660Z,14.70
2018-03-06T01:17:06.178Z,13.90
2018-03-06T01:19:34.480Z,13.87
2018-03-06T01:22:03.186Z,13.90
2018-03-06T01:24:31.749Z,13.80
2018-03-06T01:27:00.494Z,13.87
2018-03-06T01:29:29.123Z,14.37
2018-03-06T01:31:57.815Z,14.23
2018-03-06T01:34:26.801Z,13.60
2018-03-06T01:36:55.108Z,14.37
2018-03-06T01:39:23.421Z,14.53
2018-03-06T01:41:51.719Z,14.90
2018-03-06T01:44:20.018Z,15.10
2018-03-06T01:46:48.731Z,13.97
2018-03-06T01:49:17.056Z,13.93
2018-03-06T01:51:57.234Z,13.63
2018-03-06T01:54:25.935Z,13.50
2018-03-06T01:56:54.231Z,14.00
2018-03-06T01:59:22.608Z,13.13
2018-03-06T02:01:50.916Z,15.23
2018-03-06T02:04:19.223Z,13.80
2018-03-06T02:06:48.011Z,14.10
2018-03-06T02:09:16.747Z,14.77
2018-03-06T02:11:45.050Z,14.67
2018-03-06T02:14:13.348Z,14.30
2018-03-06T02:16:41.666Z,14.17
2018-03-06T02:19:09.969Z,13.90
2018-03-06T02:21:38.308Z,13.27
2018-03-06T02:24:06.962Z,14.27
2018-03-06T02:26:35.251Z,13.40
2018-03-06T02:29:04.237Z,15.23
2018-03-06T02:31:32.970Z,14.13
2018-03-06T02:34:01.500Z,14.40
2018-03-06T02:36:30.271Z,13.70
2018-03-06T02:38:58.598Z,13.03
2018-03-06T02:41:27.256Z,13.50
2018-03-06T02:43:55.947Z,14.43
2018-03-06T02:46:24.729Z,13.37
2018-03-06T02:48:53.434Z,14.27
2018-03-06T02:51:21.730Z,13.70
2018-03-06T02:53:50.054Z,15.40
2018-03-06T02:56:18.425Z,14.60
2018-03-06T02:58:46.734Z,13.90
2018-03-06T03:01:15.046Z,15.00
2018-03-06T03:03:43.442Z,15.00
2018-03-06T03:06:11.751Z,14.80
2018-03-06T03:08:40.073Z,13.87
2018-03-06T03:11:08.368Z,14.63
2018-03-06T03:13:36.663Z,14.43
2018-03-06T03:16:04.994Z,14.10
2018-03-06T03:18:33.358Z,14.17
2018-03-06T03:21:01.672Z,14.03
2018-03-06T03:23:30.014Z,14.40
2018-03-06T03:25:58.315Z,14.20
2018-03-06T03:28:26.633Z,15.00
2018-03-06T03:30:54.961Z,14.23
2018-03-06T03:33:23.275Z,15.03
2018-03-06T03:35:51.586Z,14.20
2018-03-06T03:38:20.291Z,13.80
2018-03-06T03:40:48.583Z,14.13
2018-03-06T03:43:16.910Z,14.30
2018-03-06T03:45:45.914Z,14.40
2018-03-06T03:48:14.607Z,14.87
2018-03-06T03:50:43.311Z,14.83
2018-03-06T03:53:11.741Z,15.13
2018-03-06T03:55:40.099Z,13.67
2018-03-06T03:58:08.404Z,14.07
2018-03-06T04:00:36.719Z,14.67
2018-03-06T04:03:05.041Z,14.80
2018-03-06T04:05:33.332Z,14.20
2018-03-06T04:08:01.642Z,15.70
2018-03-06T04:10:29.942Z,14.63
2018-03-06T04:12:58.256Z,14.70
2018-03-06T04:15:26.580Z,14.93
2018-03-06T04:17:54.875Z,14.70
2018-03-06T04:20:23.163Z,14.80
2018-03-06T04:22:51.490Z,14.30
2018-03-06T04:25:20.190Z,14.50
2018-03-06T04:27:48.498Z,14.97
2018-03-06T04:30:16.827Z,16.00
2018-03-06T04:32:45.523Z,14.63
2018-03-06T04:35:14.500Z,15.17
2018-03-06T04:37:43.208Z,14.80
2018-03-06T04:40:11.516Z,14.97
2018-03-06T04:42:39.883Z,15.10
2018-03-06T04:45:08.190Z,14.83
2018-03-06T04:47:36.581Z,14.80
2018-03-06T04:50:04.911Z,15.40
2018-03-06T04:52:33.199Z,15.70
2018-03-06T04:55:01.523Z,15.63
2018-03-06T04:57:29.956Z,15.30
2018-03-06T04:59:58.595Z,14.60
2018-03-06T05:02:27.290Z,14.80
2018-03-06T05:04:55.863Z,14.40
2018-03-06T05:07:24.562Z,14.80
2018-03-06T05:09:52.886Z,14.50
2018-03-06T05:12:21.187Z,15.87
2018-03-06T05:14:49.535Z,14.63
2018-03-06T05:17:17.879Z,15.70
2018-03-06T05:19:46.179Z,14.60
2018-03-06T05:22:14.510Z,15.90
2018-03-06T05:24:43.253Z,15.10
2018-03-06T05:27:11.565Z,14.70
2018-03-06T05:29:39.866Z,15.60
2018-03-06T05:32:08.208Z,15.13
2018-03-06T05:34:36.521Z,14.60
2018-03-06T05:37:05.208Z,15.73
2018-03-06T05:39:33.521Z,15.57
2018-03-06T05:42:01.820Z,15.27
2018-03-06T05:44:30.127Z,14.40
2018-03-06T05:46:58.859Z,14.70
2018-03-06T05:49:27.493Z,15.13
2018-03-06T05:51:56.191Z,16.07
2018-03-06T05:54:24.921Z,14.43
2018-03-06T05:56:53.224Z,14.90
2018-03-06T05:59:21.520Z,15.13
2018-03-06T06:01:50.580Z,14.40
2018-03-06T06:04:19.092Z,14.97
2018-03-06T06:06:47.795Z,15.00
2018-03-06T06:09:16.362Z,15.00
2018-03-06T06:11:45.544Z,15.37
2018-03-06T06:14:13.842Z,15.63
2018-03-06T06:16:42.146Z,15.50
2018-03-06T06:19:11.107Z,15.43
2018-03-06T06:21:39.649Z,15.80
2018-03-06T06:24:07.943Z,15.27
2018-03-06T06:26:36.547Z,15.33
2018-03-06T06:29:04.879Z,15.73
2018-03-06T06:31:33.200Z,16.20
2018-03-06T06:34:01.492Z,15.70
2018-03-06T06:36:29.798Z,14.80
2018-03-06T06:38:58.095Z,15.13
2018-03-06T06:41:26.379Z,14.60
2018-03-06T06:43:54.723Z,16.00
2018-03-06T06:46:23.015Z,15.30
2018-03-06T06:48:51.304Z,16.07
2018-03-06T06:51:19.651Z,15.70
2018-03-06T06:53:47.956Z,15.33
2018-03-06T06:56:16.253Z,15.43
2018-03-06T06:58:44.571Z,15.17
2018-03-06T07:01:13.319Z,14.43
2018-03-06T07:03:41.601Z,15.27
2018-03-06T07:06:09.911Z,14.13
2018-03-06T07:08:38.596Z,15.43
2018-03-06T07:11:07.279Z,14.23
2018-03-06T07:13:36.022Z,16.03
2018-03-06T07:16:04.410Z,14.40
2018-03-06T07:18:32.696Z,14.93
2018-03-06T07:21:01.027Z,15.30
2018-03-06T07:23:29.311Z,14.60
2018-03-06T07:25:57.645Z,15.23
2018-03-06T07:28:25.971Z,15.30
2018-03-06T07:30:54.259Z,15.60
2018-03-06T07:33:22.567Z,15.87
2018-03-06T07:35:50.871Z,15.33
2018-03-06T07:38:19.553Z,15.07
2018-03-06T07:40:47.891Z,16.40
2018-03-06T07:43:16.264Z,16.20
2018-03-06T07:45:44.570Z,15.03
2018-03-06T07:48:13.282Z,15.17
2018-03-06T07:50:41.560Z,16.17
2018-03-06T07:53:10.103Z,11.70
2018-03-06T07:55:39.023Z,12.30
2018-03-06T07:58:07.355Z,13.20
2018-03-06T08:00:35.750Z,15.20
2018-03-06T08:03:04.227Z,16.27
2018-03-06T08:05:33.012Z,17.40
2018-03-06T08:08:01.452Z,14.43
2018-03-06T08:10:29.840Z,16.60
2018-03-06T08:12:58.286Z,15.90
2018-03-06T08:15:26.749Z,15.30
2018-03-06T08:17:55.566Z,15.80
2018-03-06T08:20:23.969Z,16.57
2018-03-06T08:22:52.328Z,14.07
2018-03-06T08:25:20.822Z,15.33
2018-03-06T08:27:49.257Z,15.10
2018-03-06T08:30:17.771Z,14.70
2018-03-06T08:32:46.385Z,15.47
2018-03-06T08:35:14.793Z,15.17
2018-03-06T08:37:43.272Z,14.87
2018-03-06T08:40:12.062Z,15.13
2018-03-06T08:42:40.536Z,15.00
2018-03-06T08:45:08.935Z,14.47
2018-03-06T08:47:37.312Z,14.80
2018-03-06T08:50:07.017Z,15.50
2018-03-06T08:52:35.853Z,14.83
2018-03-06T08:55:04.948Z,15.90
2018-03-06T08:57:33.427Z,15.20
2018-03-06T09:00:01.747Z,14.70
2018-03-06T09:02:30.032Z,15.27
2018-03-06T09:04:58.467Z,14.97
2018-03-06T09:07:27.094Z,15.23
2018-03-06T09:09:55.439Z,14.37
2018-03-06T09:12:23.838Z,14.70
2018-03-06T09:14:52.229Z,14.90
2018-03-06T09:17:20.597Z,14.67
2018-03-06T09:19:49.064Z,14.97
2018-03-06T09:22:17.368Z,14.20
2018-03-06T09:24:45.721Z,15.80
2018-03-06T09:27:14.033Z,14.27
2018-03-06T09:29:42.727Z,14.23
2018-03-06T09:32:11.701Z,13.93
2018-03-06T09:34:40.003Z,15.00
2018-03-06T09:37:08.292Z,15.43
2018-03-06T09:39:36.641Z,15.27
2018-03-06T09:42:04.952Z,24.00
2018-03-06T09:44:33.245Z,27.17
2018-03-06T09:47:01.598Z,30.03
2018-03-06T09:49:29.848Z,32.77
2018-03-06T09:51:58.620Z,34.13
2018-03-06T09:54:26.932Z,33.87
2018-03-06T09:56:55.218Z,35.87
2018-03-06T09:59:23.504Z,34.90
2018-03-06T10:01:51.794Z,35.63
2018-03-06T10:04:20.115Z,35.57
2018-03-06T10:06:48.521Z,34.73
2018-03-06T10:09:16.806Z,34.37
2018-03-06T10:11:45.096Z,35.43
2018-03-06T10:14:13.427Z,37.53
2018-03-06T10:16:42.182Z,36.13
2018-03-06T10:19:10.461Z,35.90
2018-03-06T10:21:38.771Z,35.67
2018-03-06T10:24:08.440Z,36.60
2018-03-06T10:26:36.758Z,35.83
2018-03-06T10:29:05.482Z,36.40
2018-03-06T10:31:33.767Z,34.83
2018-03-06T10:34:02.055Z,33.47
2018-03-06T10:36:30.445Z,33.87
2018-03-06T10:38:58.707Z,33.77
2018-03-06T10:41:27.481Z,32.90
2018-03-06T10:43:56.142Z,32.13
2018-03-06T10:46:24.586Z,30.00
2018-03-06T10:48:55.764Z,31.00
2018-03-06T10:51:24.952Z,32.43
2018-03-06T10:53:54.016Z,31.60
2018-03-06T10:56:22.816Z,29.57
2018-03-06T10:58:51.207Z,30.40
2018-03-06T11:01:24.876Z,28.00
2018-03-06T11:03:53.191Z,27.80
2018-03-06T11:06:21.862Z,27.50
2018-03-06T11:08:50.551Z,27.10
2018-03-06T11:11:19.248Z,28.83
2018-03-06T11:13:48.181Z,28.07
2018-03-06T11:16:16.493Z,28.80
2018-03-06T11:18:44.821Z,28.00
2018-03-06T11:21:13.136Z,29.30
2018-03-06T11:23:41.457Z,26.77
2018-03-06T11:26:09.759Z,26.60
2018-03-06T11:28:38.063Z,26.73
2018-03-06T11:31:06.433Z,25.37
2018-03-06T11:33:34.743Z,26.10
2018-03-06T11:36:03.479Z,25.77
2018-03-06T11:38:32.031Z,26.00
2018-03-06T11:41:00.320Z,26.10
2018-03-06T11:43:28.631Z,25.87
2018-03-06T11:45:57.113Z,26.77
2018-03-06T11:48:25.508Z,26.37
2018-03-06T11:50:53.803Z,26.90
2018-03-06T11:53:22.559Z,27.47
2018-03-06T11:55:51.164Z,26.90
2018-03-06T11:58:19.456Z,26.90
2018-03-06T12:00:48.682Z,27.17
2018-03-06T12:03:17.007Z,26.43
2018-03-06T12:05:45.305Z,27.17
2018-03-06T12:08:14.000Z,27.30
2018-03-06T12:10:42.692Z,28.40
2018-03-06T12:13:10.983Z,28.20
2018-03-06T12:15:39.268Z,26.70
2018-03-06T12:18:07.571Z,27.20
2018-03-06T12:20:35.859Z,27.13
2018-03-06T12:23:04.139Z,27.40
2018-03-06T12:25:32.498Z,27.17
2018-03-06T12:28:00.795Z,26.40
2018-03-06T12:30:29.087Z,26.93
2018-03-06T12:32:57.809Z,26.50
2018-03-06T12:35:26.204Z,27.63
2018-03-06T12:37:54.511Z,25.77
2018-03-06T12:40:23.300Z,26.43
2018-03-06T12:42:56.165Z,27.07
2018-03-06T12:45:36.830Z,26.30
2018-03-06T12:48:05.169Z,27.70
2018-03-06T12:50:33.591Z,25.47
2018-03-06T12:53:02.199Z,25.80
2018-03-06T12:55:30.487Z,25.30
2018-03-06T12:57:59.242Z,25.50
2018-03-06T13:00:27.586Z,26.17
2018-03-06T13:02:55.876Z,25.30
2018-03-06T13:05:24.268Z,26.23
2018-03-06T13:07:52.679Z,24.50
2018-03-06T13:10:21.006Z,24.63
2018-03-06T13:12:49.534Z,25.97
2018-03-06T13:15:17.820Z,24.80
2018-03-06T13:17:46.529Z,24.00
2018-03-06T13:20:15.312Z,24.37
2018-03-06T13:22:44.173Z,23.47
2018-03-06T13:25:12.452Z,23.13
2018-03-06T13:27:40.747Z,24.30
2018-03-06T13:30:09.064Z,22.63
2018-03-06T13:32:37.454Z,22.27
2018-03-06T13:35:06.059Z,23.70
2018-03-06T13:37:34.348Z,23.47
2018-03-06T13:40:03.065Z,21.87
2018-03-06T13:42:31.360Z,22.70
2018-03-06T13:44:59.668Z,23.00
2018-03-06T13:47:27.992Z,22.50
2018-03-06T13:49:56.299Z,22.07
2018-03-06T13:52:25.411Z,21.90
2018-03-06T13:54:53.747Z,22.40
2018-03-06T13:57:22.039Z,20.97
2018-03-06T13:59:50.326Z,21.57
2018-03-06T14:02:18.642Z,20.23
2018-03-06T14:04:46.938Z,21.13
2018-03-06T14:07:15.220Z,21.93
2018-03-06T14:09:43.543Z,20.00
2018-03-06T14:12:11.936Z,21.00
2018-03-06T14:14:40.299Z,21.10
2018-03-06T14:17:08.616Z,21.47
2018-03-06T14:19:38.210Z,20.70
2018-03-06T14:22:06.898Z,20.73
2018-03-06T14:24:35.632Z,20.10
2018-03-06T14:27:04.155Z,20.30
2018-03-06T14:29:32.436Z,20.83
2018-03-06T14:32:00.748Z,21.37
2018-03-06T14:34:29.286Z,21.77
2018-03-06T14:36:57.876Z,22.33
2018-03-06T14:39:26.580Z,22.80
2018-03-06T14:41:55.252Z,22.30
2018-03-06T14:44:24.227Z,23.87
2018-03-06T14:46:53.236Z,22.13
2018-03-06T14:49:21.532Z,23.53
2018-03-06T14:51:50.235Z,24.53
2018-03-06T14:54:18.881Z,24.03
2018-03-06T14:56:47.209Z,24.80
2018-03-06T14:59:15.528Z,26.70
2018-03-06T15:01:43.817Z,24.97
2018-03-06T15:04:12.098Z,25.80
2018-03-06T15:06:40.814Z,27.07
2018-03-06T15:09:09.098Z,26.50
2018-03-06T15:11:37.471Z,26.00
2018-03-06T15:14:05.761Z,26.50
2018-03-06T15:16:34.386Z,27.17
2018-03-06T15:19:02.696Z,26.50
2018-03-06T15:21:31.210Z,25.53
2018-03-06T15:23:59.499Z,27.57
2018-03-06T15:26:28.104Z,25.40
2018-03-06T15:28:56.390Z,26.23
2018-03-06T15:31:25.075Z,25.20
2018-03-06T15:33:53.408Z,24.57
2018-03-06T15:36:21.719Z,26.33
2018-03-06T15:38:50.038Z,27.33
2018-03-06T15:41:18.395Z,24.40
2018-03-06T15:43:47.113Z,26.43
2018-03-06T15:46:15.438Z,25.50
2018-03-06T15:48:43.912Z,26.93
2018-03-06T15:51:12.269Z,26.57
2018-03-06T15:53:40.662Z,26.33
2018-03-06T15:56:09.016Z,26.67
2018-03-06T15:58:37.350Z,25.80
2018-03-06T16:01:06.462Z,27.00
2018-03-06T16:03:34.785Z,27.13
2018-03-06T16:06:03.445Z,27.70
2018-03-06T16:08:32.045Z,27.43
2018-03-06T16:11:00.876Z,27.80
2018-03-06T16:13:29.600Z,25.90
2018-03-06T16:15:57.949Z,28.77
2018-03-06T16:18:26.712Z,27.87
2018-03-06T16:20:55.159Z,28.03
2018-03-06T16:23:23.545Z,29.40
2018-03-06T16:25:51.929Z,29.50
2018-03-06T16:28:20.258Z,29.53
2018-03-06T16:30:49.229Z,29.37
2018-03-06T16:33:18.236Z,30.20
2018-03-06T16:35:47.094Z,28.87
2018-03-06T16:38:15.844Z,31.77
2018-03-06T16:40:44.180Z,29.80
2018-03-06T16:43:13.047Z,30.77
2018-03-06T16:45:41.467Z,29.07
2018-03-06T16:48:09.800Z,29.30
2018-03-06T16:50:38.112Z,28.93
2018-03-06T16:53:06.845Z,28.00
2018-03-06T16:55:35.182Z,28.40
2018-03-06T16:58:03.898Z,28.40
2018-03-06T17:00:33.148Z,27.63
2018-03-06T17:03:01.471Z,27.17
2018-03-06T17:05:29.825Z,27.60
2018-03-06T17:07:58.207Z,27.90
2018-03-06T17:10:26.972Z,28.60
2018-03-06T17:12:55.341Z,27.90
2018-03-06T17:15:23.687Z,28.27
2018-03-06T17:17:52.005Z,27.93
2018-03-06T17:22:54.887Z,28.30
2018-03-06T17:25:23.216Z,31.17
2018-03-06T17:27:51.544Z,29.83
2018-03-06T17:30:20.167Z,31.43
2018-03-06T17:32:48.601Z,30.47
2018-03-06T17:35:16.994Z,29.90
2018-03-06T17:37:45.462Z,30.77
2018-03-06T17:40:13.872Z,29.83
2018-03-06T17:42:42.592Z,29.40
2018-03-06T17:45:10.916Z,29.17
2018-03-06T17:47:39.270Z,28.97
2018-03-06T17:50:07.629Z,30.43
2018-03-06T17:52:36.039Z,29.63
2018-03-06T17:55:04.378Z,30.00
2018-03-06T17:57:32.722Z,29.80
2018-03-06T18:00:01.464Z,28.03
2018-03-06T18:02:29.814Z,27.83
2018-03-06T18:04:58.447Z,27.60
2018-03-06T18:07:27.213Z,28.20
2018-03-06T18:09:55.544Z,29.33
2018-03-06T18:12:24.320Z,29.40
2018-03-06T18:14:52.775Z,28.73
2018-03-06T18:17:21.153Z,28.57
2018-03-06T18:19:49.935Z,26.83
2018-03-06T18:22:19.175Z,29.77
2018-03-06T18:24:47.885Z,28.83
2018-03-06T18:27:16.238Z,28.67
2018-03-06T18:29:44.961Z,29.33
2018-03-06T18:32:13.300Z,27.27
2018-03-06T18:34:42.098Z,27.70
2018-03-06T18:37:10.858Z,27.33
2018-03-06T18:39:39.181Z,26.33
2018-03-06T18:42:07.529Z,28.47
2018-03-06T18:44:36.315Z,23.10
2018-03-06T18:47:05.411Z,22.83
2018-03-06T18:49:33.850Z,20.77
2018-03-06T18:52:02.203Z,23.57
2018-03-06T18:54:30.853Z,21.77
2018-03-06T18:56:59.439Z,22.10
2018-03-06T18:59:29.194Z,22.37
2018-03-06T19:02:20.175Z,21.10
2018-03-06T19:05:00.350Z,21.30
2018-03-06T19:07:28.780Z,23.10
2018-03-06T19:09:57.133Z,21.70
2018-03-06T19:12:25.495Z,22.20
2018-03-06T19:14:53.813Z,22.23
2018-03-06T19:17:22.134Z,22.23
2018-03-06T19:19:50.862Z,21.90
2018-03-06T19:22:19.253Z,21.60
2018-03-06T19:24:47.572Z,21.90
2018-03-06T19:27:15.923Z,22.67
2018-03-06T19:29:44.665Z,22.63
2018-03-06T19:32:13.009Z,22.03
2018-03-06T19:34:41.439Z,22.20
2018-03-06T19:37:09.720Z,23.43
2018-03-06T19:39:38.214Z,21.30
2018-03-06T19:42:06.939Z,22.60
2018-03-06T19:44:35.251Z,32.63
2018-03-06T19:47:03.558Z,33.00
2018-03-06T19:49:31.847Z,30.03
2018-03-06T19:52:00.541Z,34.00
2018-03-06T19:54:28.871Z,34.50
2018-03-06T19:56:57.166Z,35.60
2018-03-06T19:59:25.470Z,31.50
2018-03-06T20:01:53.792Z,37.37
2018-03-06T20:04:22.081Z,33.83
2018-03-06T20:06:50.437Z,33.20
2018-03-06T20:09:18.739Z,30.30
2018-03-06T20:11:47.043Z,32.30
2018-03-06T20:14:17.944Z,33.10
2018-03-06T20:16:46.263Z,28.40
2018-03-06T20:19:20.864Z,31.93
2018-03-06T20:21:49.196Z,33.33
2018-03-06T20:24:23.233Z,33.60
2018-03-06T20:26:51.563Z,33.77
2018-03-06T20:29:19.859Z,32.10
2018-03-06T20:31:53.757Z,31.77
2018-03-06T20:34:22.085Z,32.57
2018-03-06T20:36:51.284Z,35.07
2018-03-06T20:39:25.644Z,32.80
2018-03-06T20:41:53.942Z,33.33
2018-03-06T20:44:22.230Z,32.80
2018-03-06T20:46:56.332Z,30.37
2018-03-06T20:49:24.625Z,31.80
2018-03-06T20:51:52.940Z,32.97
2018-03-06T20:54:27.394Z,30.77
2018-03-06T20:56:55.676Z,31.20
2018-03-06T20:59:23.999Z,32.43
2018-03-06T21:01:52.354Z,30.90
2018-03-06T21:04:20.662Z,29.53
2018-03-06T21:06:49.431Z,28.80
2018-03-06T21:09:17.723Z,31.17
2018-03-06T21:11:46.062Z,26.63
2018-03-06T21:14:14.411Z,27.90
2018-03-06T21:16:42.708Z,28.30
2018-03-06T21:19:11.011Z,27.90
2018-03-06T21:21:39.322Z,28.30
2018-03-06T21:24:08.007Z,30.50
2018-03-06T21:26:36.728Z,29.17
2018-03-06T21:29:05.482Z,27.73
2018-03-06T21:31:33.925Z,26.30
2018-03-06T21:34:02.277Z,27.37
2018-03-06T21:36:30.580Z,28.00
2018-03-06T21:38:58.877Z,28.23
2018-03-06T21:41:27.457Z,25.70
2018-03-06T21:43:55.740Z,27.60
2018-03-06T21:46:24.042Z,27.97
2018-03-06T21:48:53.007Z,27.20
2018-03-06T21:51:21.299Z,27.10
2018-03-06T21:53:49.993Z,27.30
2018-03-06T21:56:18.307Z,28.10
2018-03-06T21:58:46.601Z,26.30
2018-03-06T22:01:14.894Z,25.83
2018-03-06T22:03:43.188Z,27.60
2018-03-06T22:06:11.872Z,26.20
2018-03-06T22:08:40.332Z,27.20
2018-03-06T22:11:08.851Z,22.47
2018-03-06T22:13:37.300Z,25.77
2018-03-06T22:16:05.625Z,27.27
2018-03-06T22:18:33.949Z,27.30
2018-03-06T22:21:02.283Z,26.57
2018-03-06T22:23:30.639Z,26.47
2018-03-06T22:25:59.346Z,26.27
2018-03-06T22:28:27.652Z,26.40
2018-03-06T22:30:56.370Z,25.67
2018-03-06T22:33:25.267Z,25.37
2018-03-06T22:35:54.108Z,25.63
2018-03-06T22:38:22.441Z,25.30
2018-03-06T22:40:51.185Z,26.20
2018-03-06T22:43:19.488Z,26.90
2018-03-06T22:45:47.817Z,26.70
2018-03-06T22:48:16.151Z,26.63
2018-03-06T22:50:44.536Z,25.33
2018-03-06T22:53:12.911Z,25.00
2018-03-06T22:55:41.599Z,21.20
2018-03-06T22:58:11.023Z,21.00
2018-03-06T23:00:39.343Z,19.77
2018-03-06T23:03:09.301Z,19.13
2018-03-06T23:05:37.635Z,18.80
2018-03-06T23:08:05.964Z,18.00
2018-03-06T23:10:34.284Z,17.27
2018-03-06T23:13:02.707Z,16.80
2018-03-06T23:15:31.411Z,16.90
2018-03-06T23:17:59.688Z,16.53
2018-03-06T23:20:27.973Z,15.70
2018-03-06T23:22:56.263Z,16.20
2018-03-06T23:25:24.582Z,15.60
2018-03-06T23:27:52.859Z,15.33
2018-03-06T23:30:21.192Z,14.40
2018-03-06T23:32:49.484Z,15.20
2018-03-06T23:35:18.019Z,14.43
2018-03-06T23:37:46.959Z,14.60
2018-03-06T23:40:15.241Z,14.00
2018-03-06T23:42:43.524Z,15.10
2018-03-06T23:45:11.834Z,14.20
2018-03-06T23:47:40.506Z,13.90
2018-03-06T23:50:09.181Z,13.83
2018-03-06T23:52:37.796Z,13.90
2018-03-06T23:55:06.088Z,12.10
2018-03-06T23:57:34.395Z,14.23
